sensor_id;sensor_type;location;lat;lon;timestamp;temperature;humidity
65876;HTU21D;52657;51.128;5.938;2023-06-14T00:01:38;23.57;36.38
65876;HTU21D;52657;51.128;5.938;2023-06-14T00:04:04;23.56;36.73
65876;HTU21D;52657;51.128;5.938;2023-06-14T00:06:31;23.55;37.11
65876;HTU21D;52657;51.128;5.938;2023-06-14T00:08:56;23.51;37.56
65876;HTU21D;52657;51.128;5.938;2023-06-14T00:11:23;23.42;37.96
65876;HTU21D;52657;51.128;5.938;2023-06-14T00:13:48;23.34;38.24
65876;HTU21D;52657;51.128;5.938;2023-06-14T00:16:14;23.20;38.27
65876;HTU21D;52657;51.128;5.938;2023-06-14T00:18:42;23.09;38.45
65876;HTU21D;52657;51.128;5.938;2023-06-14T00:21:07;23.03;38.62
65876;HTU21D;52657;51.128;5.938;2023-06-14T00:23:34;23.03;38.46
65876;HTU21D;52657;51.128;5.938;2023-06-14T00:25:59;23.03;38.17
65876;HTU21D;52657;51.128;5.938;2023-06-14T00:28:25;23.03;37.56
65876;HTU21D;52657;51.128;5.938;2023-06-14T00:30:51;23.05;37.79
65876;HTU21D;52657;51.128;5.938;2023-06-14T00:33:17;22.98;38.14
65876;HTU21D;52657;51.128;5.938;2023-06-14T00:35:43;22.85;38.44
65876;HTU21D;52657;51.128;5.938;2023-06-14T00:38:09;22.76;38.62
65876;HTU21D;52657;51.128;5.938;2023-06-14T00:40:35;22.76;38.87
65876;HTU21D;52657;51.128;5.938;2023-06-14T00:43:01;22.72;39.05
65876;HTU21D;52657;51.128;5.938;2023-06-14T00:45:27;22.66;39.32
65876;HTU21D;52657;51.128;5.938;2023-06-14T00:47:53;22.67;39.28
65876;HTU21D;52657;51.128;5.938;2023-06-14T00:50:21;22.64;39.20
65876;HTU21D;52657;51.128;5.938;2023-06-14T00:52:49;22.60;39.49
65876;HTU21D;52657;51.128;5.938;2023-06-14T00:55:15;22.54;39.56
65876;HTU21D;52657;51.128;5.938;2023-06-14T00:57:41;22.49;39.81
65876;HTU21D;52657;51.128;5.938;2023-06-14T01:00:07;22.46;39.94
65876;HTU21D;52657;51.128;5.938;2023-06-14T01:02:38;22.37;40.17
65876;HTU21D;52657;51.128;5.938;2023-06-14T01:05:06;22.28;40.36
65876;HTU21D;52657;51.128;5.938;2023-06-14T01:08:00;22.25;40.49
65876;HTU21D;52657;51.128;5.938;2023-06-14T01:15:56;22.08;40.31
65876;HTU21D;52657;51.128;5.938;2023-06-14T01:18:22;22.09;40.42
65876;HTU21D;52657;51.128;5.938;2023-06-14T01:20:51;22.07;40.20
65876;HTU21D;52657;51.128;5.938;2023-06-14T01:23:23;22.07;40.20
65876;HTU21D;52657;51.128;5.938;2023-06-14T01:25:50;22.07;40.24
65876;HTU21D;52657;51.128;5.938;2023-06-14T01:28:20;22.09;40.44
65876;HTU21D;52657;51.128;5.938;2023-06-14T01:30:51;22.05;40.80
65876;HTU21D;52657;51.128;5.938;2023-06-14T01:33:21;21.97;41.27
65876;HTU21D;52657;51.128;5.938;2023-06-14T01:35:49;21.93;41.59
65876;HTU21D;52657;51.128;5.938;2023-06-14T01:38:17;21.84;41.64
65876;HTU21D;52657;51.128;5.938;2023-06-14T01:40:45;21.77;41.90
65876;HTU21D;52657;51.128;5.938;2023-06-14T01:43:15;21.68;41.94
65876;HTU21D;52657;51.128;5.938;2023-06-14T01:45:42;21.61;41.97
65876;HTU21D;52657;51.128;5.938;2023-06-14T01:48:09;21.58;42.10
65876;HTU21D;52657;51.128;5.938;2023-06-14T01:50:35;21.52;42.51
65876;HTU21D;52657;51.128;5.938;2023-06-14T01:53:01;21.48;42.23
65876;HTU21D;52657;51.128;5.938;2023-06-14T01:55:26;21.42;42.58
65876;HTU21D;52657;51.128;5.938;2023-06-14T01:57:53;21.37;42.55
65876;HTU21D;52657;51.128;5.938;2023-06-14T02:00:20;21.37;42.64
65876;HTU21D;52657;51.128;5.938;2023-06-14T02:02:47;21.31;42.73
65876;HTU21D;52657;51.128;5.938;2023-06-14T02:05:13;21.29;42.76
65876;HTU21D;52657;51.128;5.938;2023-06-14T02:07:41;21.27;42.82
65876;HTU21D;52657;51.128;5.938;2023-06-14T02:10:07;21.23;42.66
65876;HTU21D;52657;51.128;5.938;2023-06-14T02:12:32;21.20;42.60
65876;HTU21D;52657;51.128;5.938;2023-06-14T02:14:58;21.21;42.77
65876;HTU21D;52657;51.128;5.938;2023-06-14T02:17:24;21.20;42.71
65876;HTU21D;52657;51.128;5.938;2023-06-14T02:19:50;21.14;42.80
65876;HTU21D;52657;51.128;5.938;2023-06-14T02:22:16;21.07;42.89
65876;HTU21D;52657;51.128;5.938;2023-06-14T02:24:43;21.03;42.91
65876;HTU21D;52657;51.128;5.938;2023-06-14T02:27:09;20.98;42.93
65876;HTU21D;52657;51.128;5.938;2023-06-14T02:29:37;20.98;43.00
65876;HTU21D;52657;51.128;5.938;2023-06-14T02:32:06;20.99;43.03
65876;HTU21D;52657;51.128;5.938;2023-06-14T02:34:33;20.95;43.02
65876;HTU21D;52657;51.128;5.938;2023-06-14T02:37:00;20.93;43.01
65876;HTU21D;52657;51.128;5.938;2023-06-14T02:39:28;20.90;43.20
65876;HTU21D;52657;51.128;5.938;2023-06-14T02:41:54;20.86;43.29
65876;HTU21D;52657;51.128;5.938;2023-06-14T02:44:24;20.83;43.40
65876;HTU21D;52657;51.128;5.938;2023-06-14T02:46:53;20.78;43.47
65876;HTU21D;52657;51.128;5.938;2023-06-14T02:49:19;20.75;43.51
65876;HTU21D;52657;51.128;5.938;2023-06-14T02:51:44;20.72;43.74
65876;HTU21D;52657;51.128;5.938;2023-06-14T02:54:10;20.73;43.68
65876;HTU21D;52657;51.128;5.938;2023-06-14T02:56:38;20.73;43.71
65876;HTU21D;52657;51.128;5.938;2023-06-14T02:59:04;20.73;43.65
65876;HTU21D;52657;51.128;5.938;2023-06-14T03:01:30;20.74;43.73
65876;HTU21D;52657;51.128;5.938;2023-06-14T03:04:01;20.74;43.79
65876;HTU21D;52657;51.128;5.938;2023-06-14T03:06:30;20.69;43.96
65876;HTU21D;52657;51.128;5.938;2023-06-14T03:08:57;20.69;44.03
65876;HTU21D;52657;51.128;5.938;2023-06-14T03:11:29;20.68;44.21
65876;HTU21D;52657;51.128;5.938;2023-06-14T03:13:55;20.61;44.38
65876;HTU21D;52657;51.128;5.938;2023-06-14T03:16:25;20.60;44.37
65876;HTU21D;52657;51.128;5.938;2023-06-14T03:18:51;20.59;44.33
65876;HTU21D;52657;51.128;5.938;2023-06-14T03:21:19;20.59;44.44
65876;HTU21D;52657;51.128;5.938;2023-06-14T03:23:46;20.55;44.61
65876;HTU21D;52657;51.128;5.938;2023-06-14T03:26:12;20.53;44.62
65876;HTU21D;52657;51.128;5.938;2023-06-14T03:28:46;20.53;44.74
65876;HTU21D;52657;51.128;5.938;2023-06-14T03:31:12;20.46;44.75
65876;HTU21D;52657;51.128;5.938;2023-06-14T03:33:39;20.44;44.84
65876;HTU21D;52657;51.128;5.938;2023-06-14T03:36:06;20.42;44.90
65876;HTU21D;52657;51.128;5.938;2023-06-14T03:38:35;20.40;45.18
65876;HTU21D;52657;51.128;5.938;2023-06-14T03:41:02;20.39;45.32
65876;HTU21D;52657;51.128;5.938;2023-06-14T03:43:28;20.40;45.20
65876;HTU21D;52657;51.128;5.938;2023-06-14T03:45:55;20.42;45.04
65876;HTU21D;52657;51.128;5.938;2023-06-14T03:48:23;20.41;45.28
65876;HTU21D;52657;51.128;5.938;2023-06-14T03:50:49;20.40;45.49
65876;HTU21D;52657;51.128;5.938;2023-06-14T03:53:16;20.39;45.65
65876;HTU21D;52657;51.128;5.938;2023-06-14T03:55:44;20.35;45.64
65876;HTU21D;52657;51.128;5.938;2023-06-14T03:58:10;20.39;45.71
65876;HTU21D;52657;51.128;5.938;2023-06-14T04:00:37;20.48;45.85
65876;HTU21D;52657;51.128;5.938;2023-06-14T04:03:03;20.76;45.33
65876;HTU21D;52657;51.128;5.938;2023-06-14T04:05:31;21.03;44.79
65876;HTU21D;52657;51.128;5.938;2023-06-14T04:07:57;21.35;44.16
65876;HTU21D;52657;51.128;5.938;2023-06-14T04:10:24;21.72;43.52
65876;HTU21D;52657;51.128;5.938;2023-06-14T04:12:50;22.10;42.52
65876;HTU21D;52657;51.128;5.938;2023-06-14T04:15:17;22.40;41.78
65876;HTU21D;52657;51.128;5.938;2023-06-14T04:17:44;22.65;41.44
65876;HTU21D;52657;51.128;5.938;2023-06-14T04:20:10;22.98;40.75
65876;HTU21D;52657;51.128;5.938;2023-06-14T04:22:36;23.23;40.17
65876;HTU21D;52657;51.128;5.938;2023-06-14T04:25:04;23.47;39.50
65876;HTU21D;52657;51.128;5.938;2023-06-14T04:27:32;23.66;38.88
65876;HTU21D;52657;51.128;5.938;2023-06-14T04:30:02;23.81;38.64
65876;HTU21D;52657;51.128;5.938;2023-06-14T04:32:34;24.03;38.14
65876;HTU21D;52657;51.128;5.938;2023-06-14T04:35:05;24.32;37.62
65876;HTU21D;52657;51.128;5.938;2023-06-14T04:37:32;24.54;36.96
65876;HTU21D;52657;51.128;5.938;2023-06-14T04:39:59;24.78;36.15
65876;HTU21D;52657;51.128;5.938;2023-06-14T04:42:25;24.80;36.02
65876;HTU21D;52657;51.128;5.938;2023-06-14T04:44:56;24.91;35.75
65876;HTU21D;52657;51.128;5.938;2023-06-14T04:47:23;24.93;35.59
65876;HTU21D;52657;51.128;5.938;2023-06-14T04:49:59;24.97;35.40
65876;HTU21D;52657;51.128;5.938;2023-06-14T04:52:28;25.01;35.60
65876;HTU21D;52657;51.128;5.938;2023-06-14T04:54:55;25.20;35.19
65876;HTU21D;52657;51.128;5.938;2023-06-14T04:57:22;25.39;35.18
65876;HTU21D;52657;51.128;5.938;2023-06-14T04:59:52;25.61;34.71
65876;HTU21D;52657;51.128;5.938;2023-06-14T05:02:25;25.84;34.63
65876;HTU21D;52657;51.128;5.938;2023-06-14T05:04:53;26.05;33.96
65876;HTU21D;52657;51.128;5.938;2023-06-14T05:07:19;26.30;33.31
65876;HTU21D;52657;51.128;5.938;2023-06-14T05:09:46;26.12;33.15
65876;HTU21D;52657;51.128;5.938;2023-06-14T05:12:12;25.66;33.54
65876;HTU21D;52657;51.128;5.938;2023-06-14T05:14:38;25.04;34.63
65876;HTU21D;52657;51.128;5.938;2023-06-14T05:17:05;24.50;35.74
65876;HTU21D;52657;51.128;5.938;2023-06-14T05:19:31;24.04;37.05
65876;HTU21D;52657;51.128;5.938;2023-06-14T05:21:57;23.71;38.41
65876;HTU21D;52657;51.128;5.938;2023-06-14T05:24:23;23.49;39.18
65876;HTU21D;52657;51.128;5.938;2023-06-14T05:26:49;23.29;39.59
65876;HTU21D;52657;51.128;5.938;2023-06-14T05:29:15;23.15;39.94
65876;HTU21D;52657;51.128;5.938;2023-06-14T05:31:41;23.01;40.27
65876;HTU21D;52657;51.128;5.938;2023-06-14T05:34:07;22.96;40.71
65876;HTU21D;52657;51.128;5.938;2023-06-14T05:36:32;22.86;41.03
65876;HTU21D;52657;51.128;5.938;2023-06-14T05:38:58;22.68;41.49
65876;HTU21D;52657;51.128;5.938;2023-06-14T05:41:28;22.55;41.76
65876;HTU21D;52657;51.128;5.938;2023-06-14T05:43:55;22.47;42.13
65876;HTU21D;52657;51.128;5.938;2023-06-14T05:46:22;22.40;42.52
65876;HTU21D;52657;51.128;5.938;2023-06-14T05:48:51;22.37;42.79
65876;HTU21D;52657;51.128;5.938;2023-06-14T05:51:20;22.43;43.45
65876;HTU21D;52657;51.128;5.938;2023-06-14T05:53:49;22.84;43.00
65876;HTU21D;52657;51.128;5.938;2023-06-14T05:56:16;23.31;42.01
65876;HTU21D;52657;51.128;5.938;2023-06-14T05:58:46;23.84;40.30
65876;HTU21D;52657;51.128;5.938;2023-06-14T06:01:12;24.36;38.53
65876;HTU21D;52657;51.128;5.938;2023-06-14T06:03:38;24.72;37.61
65876;HTU21D;52657;51.128;5.938;2023-06-14T06:06:04;25.10;36.74
65876;HTU21D;52657;51.128;5.938;2023-06-14T06:08:30;25.54;36.05
65876;HTU21D;52657;51.128;5.938;2023-06-14T06:10:57;25.95;35.19
65876;HTU21D;52657;51.128;5.938;2023-06-14T06:13:25;26.45;34.88
65876;HTU21D;52657;51.128;5.938;2023-06-14T06:15:52;26.98;33.73
65876;HTU21D;52657;51.128;5.938;2023-06-14T06:18:17;27.17;32.18
65876;HTU21D;52657;51.128;5.938;2023-06-14T06:20:43;27.45;31.22
65876;HTU21D;52657;51.128;5.938;2023-06-14T06:23:09;27.67;30.31
65876;HTU21D;52657;51.128;5.938;2023-06-14T06:25:35;27.88;29.64
65876;HTU21D;52657;51.128;5.938;2023-06-14T06:28:01;27.97;29.38
65876;HTU21D;52657;51.128;5.938;2023-06-14T06:30:26;28.11;29.26
65876;HTU21D;52657;51.128;5.938;2023-06-14T06:32:52;28.34;28.77
65876;HTU21D;52657;51.128;5.938;2023-06-14T06:35:18;28.42;28.25
65876;HTU21D;52657;51.128;5.938;2023-06-14T06:37:44;28.45;28.69
65876;HTU21D;52657;51.128;5.938;2023-06-14T06:40:10;28.70;28.34
65876;HTU21D;52657;51.128;5.938;2023-06-14T06:42:36;28.93;27.29
65876;HTU21D;52657;51.128;5.938;2023-06-14T06:45:04;29.02;26.71
65876;HTU21D;52657;51.128;5.938;2023-06-14T06:47:30;29.02;26.55
65876;HTU21D;52657;51.128;5.938;2023-06-14T06:49:56;29.16;26.56
65876;HTU21D;52657;51.128;5.938;2023-06-14T06:52:22;29.26;26.24
65876;HTU21D;52657;51.128;5.938;2023-06-14T06:54:48;29.42;26.17
65876;HTU21D;52657;51.128;5.938;2023-06-14T06:57:15;29.56;25.76
65876;HTU21D;52657;51.128;5.938;2023-06-14T06:59:40;29.73;24.71
65876;HTU21D;52657;51.128;5.938;2023-06-14T07:02:06;29.42;25.19
65876;HTU21D;52657;51.128;5.938;2023-06-14T07:04:32;29.54;25.33
65876;HTU21D;52657;51.128;5.938;2023-06-14T07:06:57;29.77;24.56
65876;HTU21D;52657;51.128;5.938;2023-06-14T07:09:23;29.76;24.32
65876;HTU21D;52657;51.128;5.938;2023-06-14T07:11:50;29.88;24.42
65876;HTU21D;52657;51.128;5.938;2023-06-14T07:14:16;29.92;23.94
65876;HTU21D;52657;51.128;5.938;2023-06-14T07:16:42;29.89;23.83
65876;HTU21D;52657;51.128;5.938;2023-06-14T07:19:08;29.82;23.86
65876;HTU21D;52657;51.128;5.938;2023-06-14T07:21:34;29.98;23.87
65876;HTU21D;52657;51.128;5.938;2023-06-14T07:24:00;29.91;23.72
65876;HTU21D;52657;51.128;5.938;2023-06-14T07:26:26;29.95;23.15
65876;HTU21D;52657;51.128;5.938;2023-06-14T07:28:52;29.92;23.00
65876;HTU21D;52657;51.128;5.938;2023-06-14T07:31:18;30.05;22.61
65876;HTU21D;52657;51.128;5.938;2023-06-14T07:33:45;29.88;22.55
65876;HTU21D;52657;51.128;5.938;2023-06-14T07:36:10;29.75;22.89
65876;HTU21D;52657;51.128;5.938;2023-06-14T07:38:36;29.77;23.37
65876;HTU21D;52657;51.128;5.938;2023-06-14T07:41:03;29.96;23.08
65876;HTU21D;52657;51.128;5.938;2023-06-14T07:43:29;29.95;23.12
65876;HTU21D;52657;51.128;5.938;2023-06-14T07:45:54;30.15;23.10
65876;HTU21D;52657;51.128;5.938;2023-06-14T07:48:20;30.23;22.98
65876;HTU21D;52657;51.128;5.938;2023-06-14T07:50:46;30.34;22.59
65876;HTU21D;52657;51.128;5.938;2023-06-14T07:53:12;30.49;22.48
65876;HTU21D;52657;51.128;5.938;2023-06-14T07:55:37;30.54;21.97
65876;HTU21D;52657;51.128;5.938;2023-06-14T07:58:06;30.54;21.76
65876;HTU21D;52657;51.128;5.938;2023-06-14T08:00:32;30.56;21.73
65876;HTU21D;52657;51.128;5.938;2023-06-14T08:02:58;30.54;21.47
65876;HTU21D;52657;51.128;5.938;2023-06-14T08:05:28;30.57;21.50
65876;HTU21D;52657;51.128;5.938;2023-06-14T08:07:54;30.49;21.79
65876;HTU21D;52657;51.128;5.938;2023-06-14T08:10:20;30.61;21.71
65876;HTU21D;52657;51.128;5.938;2023-06-14T08:12:46;30.61;21.61
65876;HTU21D;52657;51.128;5.938;2023-06-14T08:15:12;30.48;21.73
65876;HTU21D;52657;51.128;5.938;2023-06-14T08:17:37;30.50;21.88
65876;HTU21D;52657;51.128;5.938;2023-06-14T08:20:03;30.44;21.88
65876;HTU21D;52657;51.128;5.938;2023-06-14T08:22:30;30.46;22.11
65876;HTU21D;52657;51.128;5.938;2023-06-14T08:25:02;30.56;21.92
65876;HTU21D;52657;51.128;5.938;2023-06-14T08:27:29;30.56;21.80
65876;HTU21D;52657;51.128;5.938;2023-06-14T08:29:55;30.72;21.61
65876;HTU21D;52657;51.128;5.938;2023-06-14T08:32:22;30.65;21.24
65876;HTU21D;52657;51.128;5.938;2023-06-14T08:34:47;30.56;21.29
65876;HTU21D;52657;51.128;5.938;2023-06-14T08:37:13;30.51;21.52
65876;HTU21D;52657;51.128;5.938;2023-06-14T08:39:39;30.53;21.86
65876;HTU21D;52657;51.128;5.938;2023-06-14T08:42:06;30.64;21.52
65876;HTU21D;52657;51.128;5.938;2023-06-14T08:44:33;30.57;21.40
65876;HTU21D;52657;51.128;5.938;2023-06-14T08:47:02;30.47;21.57
65876;HTU21D;52657;51.128;5.938;2023-06-14T08:49:32;30.52;21.63
65876;HTU21D;52657;51.128;5.938;2023-06-14T08:52:00;30.74;21.52
65876;HTU21D;52657;51.128;5.938;2023-06-14T08:54:30;30.87;20.92
65876;HTU21D;52657;51.128;5.938;2023-06-14T08:56:58;30.80;20.63
65876;HTU21D;52657;51.128;5.938;2023-06-14T08:59:25;30.74;20.15
65876;HTU21D;52657;51.128;5.938;2023-06-14T09:01:53;30.61;19.86
65876;HTU21D;52657;51.128;5.938;2023-06-14T09:04:20;30.53;20.02
65876;HTU21D;52657;51.128;5.938;2023-06-14T09:06:47;30.61;20.02
65876;HTU21D;52657;51.128;5.938;2023-06-14T09:09:21;30.49;20.21
65876;HTU21D;52657;51.128;5.938;2023-06-14T09:11:50;30.51;20.17
65876;HTU21D;52657;51.128;5.938;2023-06-14T09:16:42;30.57;18.60
65876;HTU21D;52657;51.128;5.938;2023-06-14T09:19:08;30.50;19.06
65876;HTU21D;52657;51.128;5.938;2023-06-14T09:21:34;30.53;19.12
65876;HTU21D;52657;51.128;5.938;2023-06-14T09:24:03;30.53;19.01
65876;HTU21D;52657;51.128;5.938;2023-06-14T09:26:30;30.48;18.75
65876;HTU21D;52657;51.128;5.938;2023-06-14T09:28:58;30.27;18.44
65876;HTU21D;52657;51.128;5.938;2023-06-14T09:31:25;30.18;18.11
65876;HTU21D;52657;51.128;5.938;2023-06-14T09:33:51;30.02;18.05
65876;HTU21D;52657;51.128;5.938;2023-06-14T09:36:23;30.08;18.23
65876;HTU21D;52657;51.128;5.938;2023-06-14T09:39:00;30.15;16.63
65876;HTU21D;52657;51.128;5.938;2023-06-14T09:41:38;29.96;16.48
65876;HTU21D;52657;51.128;5.938;2023-06-14T09:44:06;29.97;16.04
65876;HTU21D;52657;51.128;5.938;2023-06-14T09:46:33;30.01;15.19
65876;HTU21D;52657;51.128;5.938;2023-06-14T09:49:01;30.12;15.51
65876;HTU21D;52657;51.128;5.938;2023-06-14T09:51:28;30.19;15.71
65876;HTU21D;52657;51.128;5.938;2023-06-14T09:54:00;30.20;15.97
65876;HTU21D;52657;51.128;5.938;2023-06-14T09:56:32;30.37;16.08
65876;HTU21D;52657;51.128;5.938;2023-06-14T09:58:59;30.41;16.00
65876;HTU21D;52657;51.128;5.938;2023-06-14T10:01:30;30.41;15.84
65876;HTU21D;52657;51.128;5.938;2023-06-14T10:04:06;30.47;16.09
65876;HTU21D;52657;51.128;5.938;2023-06-14T10:06:36;30.54;16.19
65876;HTU21D;52657;51.128;5.938;2023-06-14T10:09:05;30.51;16.18
65876;HTU21D;52657;51.128;5.938;2023-06-14T10:11:32;30.60;16.28
65876;HTU21D;52657;51.128;5.938;2023-06-14T10:14:03;30.59;16.13
65876;HTU21D;52657;51.128;5.938;2023-06-14T10:19:07;30.47;16.29
65876;HTU21D;52657;51.128;5.938;2023-06-14T10:22:01;30.46;16.32
65876;HTU21D;52657;51.128;5.938;2023-06-14T10:24:40;30.62;16.62
65876;HTU21D;52657;51.128;5.938;2023-06-14T10:27:07;30.71;16.66
65876;HTU21D;52657;51.128;5.938;2023-06-14T10:32:22;30.53;17.07
65876;HTU21D;52657;51.128;5.938;2023-06-14T10:34:56;30.47;17.51
65876;HTU21D;52657;51.128;5.938;2023-06-14T10:37:23;30.46;17.70
65876;HTU21D;52657;51.128;5.938;2023-06-14T10:39:52;30.55;17.67
65876;HTU21D;52657;51.128;5.938;2023-06-14T10:42:19;30.52;17.78
65876;HTU21D;52657;51.128;5.938;2023-06-14T10:44:55;30.42;17.88
65876;HTU21D;52657;51.128;5.938;2023-06-14T10:47:36;30.35;18.19
65876;HTU21D;52657;51.128;5.938;2023-06-14T10:50:05;30.45;17.88
65876;HTU21D;52657;51.128;5.938;2023-06-14T10:52:39;30.40;17.80
65876;HTU21D;52657;51.128;5.938;2023-06-14T10:55:08;30.27;17.86
65876;HTU21D;52657;51.128;5.938;2023-06-14T11:00:06;30.25;17.12
65876;HTU21D;52657;51.128;5.938;2023-06-14T11:05:58;30.69;17.41
65876;HTU21D;52657;51.128;5.938;2023-06-14T11:11:06;30.67;17.94
65876;HTU21D;52657;51.128;5.938;2023-06-14T11:13:33;30.69;18.65
65876;HTU21D;52657;51.128;5.938;2023-06-14T11:15:59;30.75;18.67
65876;HTU21D;52657;51.128;5.938;2023-06-14T11:18:25;30.68;18.89
65876;HTU21D;52657;51.128;5.938;2023-06-14T11:20:53;30.52;19.21
65876;HTU21D;52657;51.128;5.938;2023-06-14T11:23:20;30.46;19.46
65876;HTU21D;52657;51.128;5.938;2023-06-14T11:25:53;30.23;19.99
65876;HTU21D;52657;51.128;5.938;2023-06-14T11:28:18;30.13;19.97
65876;HTU21D;52657;51.128;5.938;2023-06-14T11:31:00;30.13;20.49
65876;HTU21D;52657;51.128;5.938;2023-06-14T11:33:26;30.27;20.63
65876;HTU21D;52657;51.128;5.938;2023-06-14T11:35:52;30.39;20.66
65876;HTU21D;52657;51.128;5.938;2023-06-14T11:38:17;30.31;20.82
65876;HTU21D;52657;51.128;5.938;2023-06-14T11:40:43;30.31;21.11
65876;HTU21D;52657;51.128;5.938;2023-06-14T11:43:09;30.26;20.92
65876;HTU21D;52657;51.128;5.938;2023-06-14T11:45:35;30.22;20.88
65876;HTU21D;52657;51.128;5.938;2023-06-14T11:48:01;30.10;21.07
65876;HTU21D;52657;51.128;5.938;2023-06-14T11:50:28;30.09;21.28
65876;HTU21D;52657;51.128;5.938;2023-06-14T11:52:58;30.02;20.68
65876;HTU21D;52657;51.128;5.938;2023-06-14T11:55:39;29.77;21.21
65876;HTU21D;52657;51.128;5.938;2023-06-14T11:58:06;29.91;21.10
65876;HTU21D;52657;51.128;5.938;2023-06-14T12:00:32;30.07;20.82
65876;HTU21D;52657;51.128;5.938;2023-06-14T12:02:58;29.98;20.67
65876;HTU21D;52657;51.128;5.938;2023-06-14T12:05:25;29.77;20.94
65876;HTU21D;52657;51.128;5.938;2023-06-14T12:08:02;29.74;21.41
65876;HTU21D;52657;51.128;5.938;2023-06-14T12:10:29;29.93;21.27
65876;HTU21D;52657;51.128;5.938;2023-06-14T12:12:58;29.97;21.15
65876;HTU21D;52657;51.128;5.938;2023-06-14T12:15:28;29.97;21.18
65876;HTU21D;52657;51.128;5.938;2023-06-14T12:17:55;29.92;20.69
65876;HTU21D;52657;51.128;5.938;2023-06-14T12:20:20;29.90;20.25
65876;HTU21D;52657;51.128;5.938;2023-06-14T12:22:53;29.97;19.93
65876;HTU21D;52657;51.128;5.938;2023-06-14T12:25:47;29.77;20.08
65876;HTU21D;52657;51.128;5.938;2023-06-14T12:28:14;29.80;19.86
65876;HTU21D;52657;51.128;5.938;2023-06-14T12:30:40;29.76;20.03
65876;HTU21D;52657;51.128;5.938;2023-06-14T12:33:06;29.89;19.86
65876;HTU21D;52657;51.128;5.938;2023-06-14T12:35:32;29.97;19.66
65876;HTU21D;52657;51.128;5.938;2023-06-14T12:37:58;30.01;19.18
65876;HTU21D;52657;51.128;5.938;2023-06-14T12:40:24;30.02;18.96
65876;HTU21D;52657;51.128;5.938;2023-06-14T12:42:49;30.03;19.05
65876;HTU21D;52657;51.128;5.938;2023-06-14T12:45:15;30.07;19.41
65876;HTU21D;52657;51.128;5.938;2023-06-14T12:47:41;30.17;19.88
65876;HTU21D;52657;51.128;5.938;2023-06-14T12:50:07;30.08;19.63
65876;HTU21D;52657;51.128;5.938;2023-06-14T12:52:33;29.94;19.77
65876;HTU21D;52657;51.128;5.938;2023-06-14T12:55:03;29.87;20.25
65876;HTU21D;52657;51.128;5.938;2023-06-14T12:57:29;29.82;20.13
65876;HTU21D;52657;51.128;5.938;2023-06-14T12:59:55;29.88;20.31
65876;HTU21D;52657;51.128;5.938;2023-06-14T13:02:20;29.90;19.79
65876;HTU21D;52657;51.128;5.938;2023-06-14T13:04:47;29.93;20.23
65876;HTU21D;52657;51.128;5.938;2023-06-14T13:07:13;29.91;20.87
65876;HTU21D;52657;51.128;5.938;2023-06-14T13:09:40;29.88;20.50
65876;HTU21D;52657;51.128;5.938;2023-06-14T13:12:07;29.79;21.10
65876;HTU21D;52657;51.128;5.938;2023-06-14T13:14:33;29.76;21.31
65876;HTU21D;52657;51.128;5.938;2023-06-14T13:16:59;29.86;21.44
65876;HTU21D;52657;51.128;5.938;2023-06-14T13:19:24;30.00;20.99
65876;HTU21D;52657;51.128;5.938;2023-06-14T13:21:50;30.03;20.86
65876;HTU21D;52657;51.128;5.938;2023-06-14T13:24:19;30.07;20.15
65876;HTU21D;52657;51.128;5.938;2023-06-14T13:26:45;30.09;20.02
65876;HTU21D;52657;51.128;5.938;2023-06-14T13:29:10;30.12;19.73
65876;HTU21D;52657;51.128;5.938;2023-06-14T13:31:36;30.17;18.68
65876;HTU21D;52657;51.128;5.938;2023-06-14T13:34:02;30.17;18.26
65876;HTU21D;52657;51.128;5.938;2023-06-14T13:36:27;30.20;18.38
65876;HTU21D;52657;51.128;5.938;2023-06-14T13:38:53;30.17;17.80
65876;HTU21D;52657;51.128;5.938;2023-06-14T13:41:20;30.08;18.09
65876;HTU21D;52657;51.128;5.938;2023-06-14T13:43:46;30.10;18.54
65876;HTU21D;52657;51.128;5.938;2023-06-14T13:46:11;30.01;19.09
65876;HTU21D;52657;51.128;5.938;2023-06-14T13:48:37;29.91;19.71
65876;HTU21D;52657;51.128;5.938;2023-06-14T13:51:03;29.95;20.05
65876;HTU21D;52657;51.128;5.938;2023-06-14T13:53:29;30.00;19.89
65876;HTU21D;52657;51.128;5.938;2023-06-14T13:55:55;30.07;20.06
65876;HTU21D;52657;51.128;5.938;2023-06-14T13:58:21;29.97;20.44
65876;HTU21D;52657;51.128;5.938;2023-06-14T14:00:46;30.00;20.23
65876;HTU21D;52657;51.128;5.938;2023-06-14T14:03:13;30.05;20.20
65876;HTU21D;52657;51.128;5.938;2023-06-14T14:05:38;30.05;20.36
65876;HTU21D;52657;51.128;5.938;2023-06-14T14:08:04;30.09;20.77
65876;HTU21D;52657;51.128;5.938;2023-06-14T14:10:30;30.09;20.94
65876;HTU21D;52657;51.128;5.938;2023-06-14T14:12:56;30.18;20.86
65876;HTU21D;52657;51.128;5.938;2023-06-14T14:15:22;30.11;21.15
65876;HTU21D;52657;51.128;5.938;2023-06-14T14:17:47;30.06;21.24
65876;HTU21D;52657;51.128;5.938;2023-06-14T14:20:13;30.02;21.01
65876;HTU21D;52657;51.128;5.938;2023-06-14T14:22:43;30.05;21.42
65876;HTU21D;52657;51.128;5.938;2023-06-14T14:25:10;30.04;21.34
65876;HTU21D;52657;51.128;5.938;2023-06-14T14:27:36;30.10;21.49
65876;HTU21D;52657;51.128;5.938;2023-06-14T14:30:05;30.19;21.44
65876;HTU21D;52657;51.128;5.938;2023-06-14T14:32:31;30.38;21.24
65876;HTU21D;52657;51.128;5.938;2023-06-14T14:34:57;30.46;21.34
65876;HTU21D;52657;51.128;5.938;2023-06-14T14:37:22;30.37;21.73
65876;HTU21D;52657;51.128;5.938;2023-06-14T14:39:48;30.38;21.68
65876;HTU21D;52657;51.128;5.938;2023-06-14T14:42:14;30.33;21.27
65876;HTU21D;52657;51.128;5.938;2023-06-14T14:44:40;30.26;21.69
65876;HTU21D;52657;51.128;5.938;2023-06-14T14:47:05;30.35;21.82
65876;HTU21D;52657;51.128;5.938;2023-06-14T14:49:31;30.42;21.37
65876;HTU21D;52657;51.128;5.938;2023-06-14T14:51:57;30.46;21.30
65876;HTU21D;52657;51.128;5.938;2023-06-14T14:54:23;30.41;21.56
65876;HTU21D;52657;51.128;5.938;2023-06-14T14:56:51;30.42;21.42
65876;HTU21D;52657;51.128;5.938;2023-06-14T14:59:17;30.40;21.61
65876;HTU21D;52657;51.128;5.938;2023-06-14T15:01:44;30.40;21.50
65876;HTU21D;52657;51.128;5.938;2023-06-14T15:04:10;30.50;21.33
65876;HTU21D;52657;51.128;5.938;2023-06-14T15:06:37;30.67;21.28
65876;HTU21D;52657;51.128;5.938;2023-06-14T15:09:05;30.67;21.02
65876;HTU21D;52657;51.128;5.938;2023-06-14T15:11:31;30.71;21.12
65876;HTU21D;52657;51.128;5.938;2023-06-14T15:13:57;30.77;20.99
65876;HTU21D;52657;51.128;5.938;2023-06-14T15:16:23;30.66;20.76
65876;HTU21D;52657;51.128;5.938;2023-06-14T15:18:49;30.47;20.96
65876;HTU21D;52657;51.128;5.938;2023-06-14T15:21:16;30.33;21.25
65876;HTU21D;52657;51.128;5.938;2023-06-14T15:23:45;30.35;20.99
65876;HTU21D;52657;51.128;5.938;2023-06-14T15:26:11;30.41;20.86
65876;HTU21D;52657;51.128;5.938;2023-06-14T15:28:37;30.50;21.02
65876;HTU21D;52657;51.128;5.938;2023-06-14T15:31:02;30.61;21.00
65876;HTU21D;52657;51.128;5.938;2023-06-14T15:33:28;30.61;21.01
65876;HTU21D;52657;51.128;5.938;2023-06-14T15:35:54;30.61;21.44
65876;HTU21D;52657;51.128;5.938;2023-06-14T15:38:20;30.76;21.28